Wilkes Barre Township, Pennsylvania
Current Conditions -  °F | °C
As of 12:54 AM on Friday 28 Nov 2014 (Local Time) from KAVP Reporting Station
Light Snow Light Snow  
Wind Chill: 20°   Ceiling: 3700
Heat Index: 27°   Visibility: 8mi
Dew Point: 21°   Wind: 6mph
Humidity: 78%   Direction: 220°SW
Pressure: 30.05"   Gusts: NA
Location:  41.1921°N, 75.9213°W
Report Text: KAVP 280554Z 22005KT 8SM -SN OVC037 M03/M06 A3005 RMK AO2 SNB53 SLP184 P0000 60000 T10281061 11017 21056 58004
Loading
Personal Weather Stations






























Interactive Weather Map New forecast layout! Learn more

10-Day Weather Forecast

Advertisements
Track Severe Weather on mobile